createdAt,value
2018-07-01T00:01:23.567Z,99081.54
2018-07-01T00:03:53.144Z,99089.20
2018-07-01T00:06:23.666Z,99087.44
2018-07-01T00:08:53.345Z,99098.16
2018-07-01T00:11:22.711Z,99102.12
2018-07-01T00:13:52.073Z,99107.42
2018-07-01T00:16:21.436Z,99109.30
2018-07-01T00:18:50.770Z,99106.96
2018-07-01T00:21:20.164Z,99109.41
2018-07-01T00:23:49.460Z,99110.86
2018-07-01T00:26:19.276Z,99106.95
2018-07-01T00:28:48.638Z,99115.86
2018-07-01T00:31:18.362Z,99107.07
2018-07-01T00:33:48.172Z,99111.86
2018-07-01T00:36:17.946Z,99113.89
2018-07-01T00:38:47.297Z,99110.63
2018-07-01T00:41:17.188Z,99120.79
2018-07-01T00:43:46.896Z,99117.34
2018-07-01T00:46:16.258Z,99116.48
2018-07-01T00:48:46.607Z,99121.84
2018-07-01T00:51:15.967Z,99117.97
2018-07-01T00:53:45.280Z,99121.94
2018-07-01T00:56:14.742Z,99121.98
2018-07-01T00:58:44.560Z,99124.66
2018-07-01T01:01:15.288Z,99124.45
2018-07-01T01:03:44.620Z,99124.80
2018-07-01T01:06:14.020Z,99126.10
2018-07-01T01:08:44.201Z,99123.17
2018-07-01T01:11:15.989Z,99124.47
2018-07-01T01:13:46.779Z,99129.78
2018-07-01T01:16:17.115Z,99129.90
2018-07-01T01:18:46.459Z,99126.37
2018-07-01T01:21:15.841Z,99123.14
2018-07-01T01:23:45.579Z,99124.27
2018-07-01T01:26:15.317Z,99118.77
2018-07-01T01:28:44.696Z,99112.92
2018-07-01T01:31:14.045Z,99114.47
2018-07-01T01:33:43.852Z,99110.95
2018-07-01T01:36:13.215Z,99109.27
2018-07-01T01:38:43.519Z,99108.11
2018-07-01T01:41:19.124Z,99113.80
2018-07-01T01:43:53.991Z,99111.72
2018-07-01T01:47:30.859Z,99105.18
2018-07-01T01:50:04.400Z,99108.34
2018-07-01T01:52:42.315Z,99114.53
2018-07-01T01:55:17.771Z,99113.39
2018-07-01T01:57:55.075Z,99110.58
2018-07-01T02:00:28.514Z,99109.36
2018-07-01T02:03:02.402Z,99117.24
2018-07-01T02:05:37.228Z,99115.73
2018-07-01T02:08:08.905Z,99122.27
2018-07-01T02:10:38.284Z,99122.77
2018-07-01T02:13:07.719Z,99121.15
2018-07-01T02:15:41.401Z,99124.00
2018-07-01T02:18:11.198Z,99116.82
2018-07-01T02:20:41.515Z,99121.08
2018-07-01T02:23:22.159Z,99121.29
2018-07-01T02:25:51.556Z,99121.64
2018-07-01T02:28:20.915Z,99116.30
2018-07-01T02:30:50.356Z,99117.66
2018-07-01T02:33:19.712Z,99127.31
2018-07-01T02:35:49.771Z,99132.28
2018-07-01T02:38:19.429Z,99137.25
2018-07-01T02:40:49.595Z,99138.25
2018-07-01T02:43:19.268Z,99138.70
2018-07-01T02:45:48.902Z,99137.84
2018-07-01T02:48:18.511Z,99135.81
2018-07-01T02:50:48.619Z,99134.88
2018-07-01T02:53:18.335Z,99128.60
2018-07-01T02:55:48.253Z,99125.88
2018-07-01T02:58:18.105Z,99133.27
2018-07-01T03:00:47.470Z,99128.33
2018-07-01T03:03:17.016Z,99132.28
2018-07-01T03:05:46.347Z,99134.73
2018-07-01T03:08:15.660Z,99133.03
2018-07-01T03:10:45.065Z,99135.50
2018-07-01T03:13:17.726Z,99141.63
2018-07-01T03:15:47.684Z,99147.47
2018-07-01T03:18:16.997Z,99137.95
2018-07-01T03:20:46.552Z,99145.20
2018-07-01T03:23:15.869Z,99149.81
2018-07-01T03:25:45.462Z,99148.80
2018-07-01T03:28:14.799Z,99152.26
2018-07-01T03:30:44.473Z,99149.16
2018-07-01T03:33:14.222Z,99153.06
2018-07-01T03:35:43.708Z,99144.96
2018-07-01T03:38:14.389Z,99146.03
2018-07-01T03:40:43.738Z,99145.45
2018-07-01T03:43:13.350Z,99151.51
2018-07-01T03:45:42.828Z,99159.69
2018-07-01T03:48:12.549Z,99156.27
2018-07-01T03:50:41.928Z,99162.09
2018-07-01T03:53:11.241Z,99166.50
2018-07-01T03:55:40.932Z,99161.03
2018-07-01T03:58:11.352Z,99165.29
2018-07-01T04:00:40.844Z,99162.98
2018-07-01T04:03:10.538Z,99163.91
2018-07-01T04:05:40.838Z,99157.91
2018-07-01T04:08:10.167Z,99156.88
2018-07-01T04:10:40.350Z,99161.83
2018-07-01T04:13:10.229Z,99165.75
2018-07-01T04:15:39.991Z,99166.49
2018-07-01T04:18:09.293Z,99165.62
2018-07-01T04:20:38.775Z,99163.19
2018-07-01T04:23:08.327Z,99171.90
2018-07-01T04:25:37.677Z,99171.67
2018-07-01T04:28:07.014Z,99175.12
2018-07-01T04:30:36.374Z,99165.97
2018-07-01T04:33:06.044Z,99169.13
2018-07-01T04:35:35.893Z,99173.70
2018-07-01T04:38:05.460Z,99174.72
2018-07-01T04:40:34.829Z,99176.09
2018-07-01T04:43:04.176Z,99179.52
2018-07-01T04:45:33.961Z,99177.08
2018-07-01T04:48:03.921Z,99175.48
2018-07-01T04:50:34.383Z,99182.54
2018-07-01T04:53:04.042Z,99176.98
2018-07-01T04:55:33.343Z,99176.91
2018-07-01T04:58:02.936Z,99185.11
2018-07-01T05:00:32.284Z,99188.35
2018-07-01T05:03:01.640Z,99185.44
2018-07-01T05:05:30.998Z,99191.13
2018-07-01T05:08:00.393Z,99185.77
2018-07-01T05:10:30.884Z,99195.42
2018-07-01T05:13:01.074Z,99194.09
2018-07-01T05:15:31.562Z,99190.52
2018-07-01T05:20:38.213Z,99204.03
2018-07-01T05:23:07.889Z,99197.80
2018-07-01T05:25:37.235Z,99197.55
2018-07-01T05:28:06.637Z,99195.85
2018-07-01T05:30:36.247Z,99196.53
2018-07-01T05:33:06.115Z,99196.33
2018-07-01T05:35:35.758Z,99198.45
2018-07-01T05:38:05.504Z,99194.73
2018-07-01T05:40:34.813Z,99195.28
2018-07-01T05:43:04.292Z,99193.11
2018-07-01T05:45:33.715Z,99192.96
2018-07-01T05:48:03.668Z,99196.08
2018-07-01T05:50:33.325Z,99195.88
2018-07-01T05:53:04.271Z,99193.75
2018-07-01T05:55:33.612Z,99197.62
2018-07-01T05:58:02.974Z,99203.63
2018-07-01T06:00:32.307Z,99201.95
2018-07-01T06:03:02.465Z,99204.33
2018-07-01T06:05:31.992Z,99200.82
2018-07-01T06:08:03.570Z,99205.25
2018-07-01T06:10:33.499Z,99202.86
2018-07-01T06:13:03.905Z,99209.33
2018-07-01T06:15:33.693Z,99211.81
2018-07-01T06:18:03.819Z,99212.38
2018-07-01T06:20:33.131Z,99201.94
2018-07-01T06:23:03.499Z,99210.48
2018-07-01T06:25:33.072Z,99205.17
2018-07-01T06:28:03.471Z,99197.64
2018-07-01T06:30:33.198Z,99207.86
2018-07-01T06:33:02.612Z,99200.20
2018-07-01T06:35:32.311Z,99199.98
2018-07-01T06:38:01.607Z,99204.53
2018-07-01T06:40:31.311Z,99198.70
2018-07-01T06:43:01.743Z,99201.77
2018-07-01T06:45:31.099Z,99205.03
2018-07-01T06:48:01.313Z,99200.48
2018-07-01T06:50:31.116Z,99200.73
2018-07-01T06:53:00.624Z,99204.91
2018-07-01T06:55:30.432Z,99209.59
2018-07-01T06:58:00.231Z,99204.25
2018-07-01T07:00:29.673Z,99200.66
2018-07-01T07:02:58.990Z,99201.22
2018-07-01T07:05:28.704Z,99198.86
2018-07-01T07:07:58.880Z,99204.91
2018-07-01T07:10:28.833Z,99205.73
2018-07-01T07:12:59.303Z,99202.69
2018-07-01T07:15:29.821Z,99200.06
2018-07-01T07:17:59.163Z,99200.91
2018-07-01T07:20:29.586Z,99200.42
2018-07-01T07:22:59.524Z,99195.87
2018-07-01T07:25:28.896Z,99201.33
2018-07-01T07:27:58.592Z,99198.30
2018-07-01T07:30:28.201Z,99198.91
2018-07-01T07:32:57.523Z,99189.50
2018-07-01T07:35:26.907Z,99190.36
2018-07-01T07:37:56.936Z,99190.05
2018-07-01T07:40:27.263Z,99187.20
2018-07-01T07:42:56.588Z,99175.55
2018-07-01T07:45:25.952Z,99186.03
2018-07-01T07:47:55.575Z,99179.87
2018-07-01T07:50:26.838Z,99174.11
2018-07-01T07:52:57.046Z,99179.23
2018-07-01T07:55:26.397Z,99167.35
2018-07-01T07:57:56.382Z,99176.47
2018-07-01T08:00:26.014Z,99178.99
2018-07-01T08:02:56.672Z,99175.02
2018-07-01T08:05:26.068Z,99171.35
2018-07-01T08:07:55.356Z,99167.17
2018-07-01T08:10:24.653Z,99171.36
2018-07-01T08:12:54.086Z,99176.91
2018-07-01T08:15:23.382Z,99177.39
2018-07-01T08:17:52.729Z,99184.33
2018-07-01T08:20:22.407Z,99183.31
2018-07-01T08:22:52.275Z,99188.59
2018-07-01T08:25:21.918Z,99178.35
2018-07-01T08:27:51.492Z,99183.22
2018-07-01T08:30:21.611Z,99181.70
2018-07-01T08:32:51.144Z,99181.03
2018-07-01T08:35:20.444Z,99180.03
2018-07-01T08:37:50.040Z,99178.02
2018-07-01T08:40:19.762Z,99180.86
2018-07-01T08:42:49.096Z,99174.12
2018-07-01T08:45:18.632Z,99178.18
2018-07-01T08:47:47.977Z,99174.11
2018-07-01T08:50:17.381Z,99180.14
2018-07-01T08:52:46.754Z,99177.97
2018-07-01T08:55:16.291Z,99173.23
2018-07-01T08:57:45.656Z,99174.47
2018-07-01T09:00:15.315Z,99168.21
2018-07-01T09:02:44.688Z,99166.92
2018-07-01T09:05:14.005Z,99163.91
2018-07-01T09:07:44.395Z,99173.66
2018-07-01T09:10:13.727Z,99170.98
2018-07-01T09:12:43.266Z,99167.53
2018-07-01T09:15:12.642Z,99169.42
2018-07-01T09:17:42.993Z,99171.05
2018-07-01T09:20:12.363Z,99177.36
2018-07-01T09:22:42.004Z,99171.70
2018-07-01T09:25:11.668Z,99170.61
2018-07-01T09:27:41.002Z,99165.30
2018-07-01T09:30:10.600Z,99164.11
2018-07-01T09:32:40.308Z,99169.69
2018-07-01T09:35:10.105Z,99164.42
2018-07-01T09:37:40.632Z,99165.48
2018-07-01T09:40:10.462Z,99163.58
2018-07-01T09:42:41.178Z,99163.06
2018-07-01T09:45:10.568Z,99158.80
2018-07-01T09:47:40.621Z,99157.20
2018-07-01T09:50:11.298Z,99170.84
2018-07-01T09:52:40.645Z,99167.22
2018-07-01T09:55:10.449Z,99162.28
2018-07-01T09:57:40.078Z,99165.35
2018-07-01T10:00:09.611Z,99156.91
2018-07-01T10:02:39.176Z,99155.91
2018-07-01T10:05:08.563Z,99162.32
2018-07-01T10:07:37.874Z,99151.44
2018-07-01T10:10:07.823Z,99155.91
2018-07-01T10:12:37.797Z,99149.86
2018-07-01T10:15:07.196Z,99153.69
2018-07-01T10:17:36.516Z,99161.38
2018-07-01T10:20:06.114Z,99159.42
2018-07-01T10:22:35.425Z,99152.44
2018-07-01T10:25:04.925Z,99148.61
2018-07-01T10:27:34.626Z,99148.91
2018-07-01T10:30:04.095Z,99150.33
2018-07-01T10:32:39.211Z,99151.41
2018-07-01T10:35:09.589Z,99142.28
2018-07-01T10:37:38.927Z,99152.65
2018-07-01T10:40:08.280Z,99145.04
2018-07-01T10:42:37.738Z,99149.94
2018-07-01T10:45:07.318Z,99146.79
2018-07-01T10:47:36.644Z,99150.20
2018-07-01T10:50:05.998Z,99135.03
2018-07-01T10:52:36.626Z,99136.12
2018-07-01T10:55:06.058Z,99126.81
2018-07-01T10:57:35.688Z,99135.23
2018-07-01T11:00:05.550Z,99132.16
2018-07-01T11:02:35.179Z,99130.38
2018-07-01T11:05:04.813Z,99120.73
2018-07-01T11:07:34.547Z,99131.92
2018-07-01T11:10:04.442Z,99137.06
2018-07-01T11:12:34.141Z,99128.48
2018-07-01T11:15:03.487Z,99134.63
2018-07-01T11:17:32.868Z,99131.80
2018-07-01T11:20:02.311Z,99123.48
2018-07-01T11:22:32.487Z,99129.00
2018-07-01T11:25:02.067Z,99129.64
2018-07-01T11:27:32.987Z,99123.31
2018-07-01T11:30:02.637Z,99123.75
2018-07-01T11:32:31.996Z,99130.09
2018-07-01T11:35:01.434Z,99125.13
2018-07-01T11:37:31.341Z,99117.34
2018-07-01T11:40:01.699Z,99115.00
2018-07-01T11:42:31.433Z,99109.14
2018-07-01T11:45:01.336Z,99117.86
2018-07-01T11:47:30.688Z,99114.19
2018-07-01T11:49:59.995Z,99118.16
2018-07-01T11:52:29.773Z,99109.29
2018-07-01T11:54:59.045Z,99120.52
2018-07-01T11:57:28.420Z,99100.39
2018-07-01T11:59:58.415Z,99105.94
2018-07-01T12:02:27.767Z,99099.58
2018-07-01T12:05:16.206Z,99098.50
2018-07-01T12:07:26.754Z,99095.66
2018-07-01T12:09:56.334Z,99085.58
2018-07-01T12:12:25.697Z,99104.50
2018-07-01T12:14:55.386Z,99097.12
2018-07-01T12:17:25.065Z,99099.23
2018-07-01T12:19:54.389Z,99093.03
2018-07-01T12:22:23.806Z,99090.34
2018-07-01T12:24:53.252Z,99087.94
2018-07-01T12:27:22.681Z,99087.02
2018-07-01T12:29:52.256Z,99091.71
2018-07-01T12:32:21.879Z,99089.78
2018-07-01T12:34:51.723Z,99081.13
2018-07-01T12:37:21.712Z,99078.84
2018-07-01T12:39:51.340Z,99081.20
2018-07-01T12:42:20.685Z,99066.28
2018-07-01T12:44:50.500Z,99068.91
2018-07-01T12:47:20.104Z,99064.69
2018-07-01T12:49:49.440Z,99070.02
2018-07-01T12:52:19.048Z,99074.02
2018-07-01T12:54:48.441Z,99060.21
2018-07-01T12:57:17.801Z,99067.04
2018-07-01T12:59:47.883Z,99067.78
2018-07-01T13:02:17.698Z,99063.86
2018-07-01T13:04:47.051Z,99056.53
2018-07-01T13:07:16.868Z,99047.55
2018-07-01T13:09:46.313Z,99052.09
2018-07-01T13:12:16.380Z,99061.33
2018-07-01T13:14:46.131Z,99056.30
2018-07-01T13:17:15.459Z,99053.04
2018-07-01T13:19:45.179Z,99044.06
2018-07-01T13:22:14.540Z,99047.48
2018-07-01T13:24:44.693Z,99052.34
2018-07-01T13:27:14.117Z,99047.52
2018-07-01T13:29:43.501Z,99038.27
2018-07-01T13:32:12.829Z,99036.81
2018-07-01T13:34:42.160Z,99033.70
2018-07-01T13:37:12.587Z,99028.21
2018-07-01T13:39:42.300Z,99029.42
2018-07-01T13:42:13.604Z,99021.64
2018-07-01T13:44:42.956Z,99021.59
2018-07-01T13:47:12.601Z,99024.37
2018-07-01T13:49:41.956Z,99021.64
2018-07-01T13:52:11.660Z,99017.89
2018-07-01T13:54:41.011Z,99016.38
2018-07-01T13:57:11.189Z,99013.49
2018-07-01T13:59:40.628Z,99006.11
2018-07-01T14:02:10.332Z,99005.47
2018-07-01T14:04:40.115Z,99013.33
2018-07-01T14:07:09.931Z,99014.67
2018-07-01T14:09:39.594Z,99008.61
2018-07-01T14:12:09.347Z,99015.94
2018-07-01T14:14:38.958Z,99007.03
2018-07-01T14:17:08.740Z,99006.50
2018-07-01T14:19:38.893Z,99001.06
2018-07-01T14:22:09.419Z,99004.08
2018-07-01T14:24:39.039Z,99000.27
2018-07-01T14:27:08.799Z,98996.98
2018-07-01T14:29:38.131Z,98995.16
2018-07-01T14:32:08.326Z,98995.95
2018-07-01T14:34:38.680Z,98988.97
2018-07-01T14:37:08.300Z,98983.07
2018-07-01T14:39:37.751Z,98983.83
2018-07-01T14:42:07.319Z,98983.54
2018-07-01T14:44:36.685Z,98987.97
2018-07-01T14:47:06.643Z,98978.19
2018-07-01T14:49:35.968Z,98980.99
2018-07-01T14:52:05.922Z,98983.67
2018-07-01T14:54:35.847Z,98976.38
2018-07-01T14:57:06.480Z,98974.09
2018-07-01T14:59:35.821Z,98972.11
2018-07-01T15:02:05.210Z,98975.23
2018-07-01T15:04:34.594Z,98968.14
2018-07-01T15:07:04.936Z,98967.32
2018-07-01T15:09:34.427Z,98968.05
2018-07-01T15:12:03.808Z,98963.05
2018-07-01T15:14:33.203Z,98963.54
2018-07-01T15:17:02.532Z,98955.78
2018-07-01T15:19:32.292Z,98950.46
2018-07-01T15:22:02.133Z,98957.83
2018-07-01T15:24:31.464Z,98955.77
2018-07-01T15:27:01.384Z,98954.44
2018-07-01T15:29:30.768Z,98951.26
2018-07-01T15:32:00.117Z,98949.84
2018-07-01T15:34:29.501Z,98950.31
2018-07-01T15:36:58.847Z,98943.58
2018-07-01T15:39:28.218Z,98944.97
2018-07-01T15:41:57.890Z,98944.09
2018-07-01T15:44:27.406Z,98938.40
2018-07-01T15:46:57.108Z,98939.30
2018-07-01T15:49:26.490Z,98933.75
2018-07-01T15:51:56.921Z,98939.33
2018-07-01T15:54:26.280Z,98935.19
2018-07-01T15:56:55.616Z,98932.75
2018-07-01T15:59:25.451Z,98937.78
2018-07-01T16:01:55.076Z,98938.72
2018-07-01T16:04:24.465Z,98943.50
2018-07-01T16:06:54.181Z,98938.52
2018-07-01T16:09:23.532Z,98932.26
2018-07-01T16:11:53.814Z,98936.03
2018-07-01T16:14:24.214Z,98937.92
2018-07-01T16:16:53.900Z,98936.86
2018-07-01T16:19:23.226Z,98931.50
2018-07-01T16:21:54.292Z,98927.91
2018-07-01T16:24:23.967Z,98934.67
2018-07-01T16:27:01.365Z,98934.22
2018-07-01T16:29:30.806Z,98938.88
2018-07-01T16:32:00.926Z,98932.30
2018-07-01T16:34:30.589Z,98932.31
2018-07-01T16:37:00.228Z,98929.96
2018-07-01T16:39:30.781Z,98925.73
2018-07-01T16:42:01.720Z,98933.68
2018-07-01T16:44:31.015Z,98937.44
2018-07-01T16:47:00.795Z,98935.78
2018-07-01T16:49:30.690Z,98942.66
2018-07-01T16:52:00.290Z,98932.85
2018-07-01T16:54:29.604Z,98936.44
2018-07-01T16:56:58.955Z,98939.94
2018-07-01T16:59:28.623Z,98947.50
2018-07-01T17:01:58.631Z,98947.43
2018-07-01T17:04:28.339Z,98946.59
2018-07-01T17:06:58.113Z,98940.45
2018-07-01T17:09:27.421Z,98935.09
2018-07-01T17:11:56.780Z,98934.34
2018-07-01T17:14:26.364Z,98935.27
2018-07-01T17:16:55.720Z,98936.64
2018-07-01T17:19:25.040Z,98930.98
2018-07-01T17:21:54.415Z,98928.81
2018-07-01T17:24:24.624Z,98930.98
2018-07-01T17:26:54.832Z,98933.23
2018-07-01T17:29:24.461Z,98937.59
2018-07-01T17:31:59.102Z,98930.60
2018-07-01T17:34:28.749Z,98922.41
2018-07-01T17:36:58.104Z,98923.76
2018-07-01T17:39:28.336Z,98925.39
2018-07-01T17:41:58.420Z,98930.41
2018-07-01T17:44:27.720Z,98934.37
2018-07-01T17:46:57.098Z,98925.05
2018-07-01T17:49:26.719Z,98930.88
2018-07-01T17:51:56.422Z,98926.86
2018-07-01T17:54:25.794Z,98936.33
2018-07-01T17:56:56.658Z,98935.70
2018-07-01T17:59:26.036Z,98934.05
2018-07-01T18:01:55.832Z,98928.98
2018-07-01T18:06:53.572Z,98948.52
2018-07-01T18:09:23.436Z,98943.00
2018-07-01T18:11:52.837Z,98949.91
2018-07-01T18:14:22.192Z,98946.23
2018-07-01T18:16:52.401Z,98949.34
2018-07-01T18:19:21.998Z,98948.30
2018-07-01T18:22:16.930Z,98944.84
2018-07-01T18:24:48.921Z,98951.54
2018-07-01T18:26:50.889Z,98953.53
2018-07-01T18:29:20.708Z,98951.55
2018-07-01T18:31:49.950Z,98948.38
2018-07-01T18:34:21.123Z,98955.97
2018-07-01T18:36:50.482Z,98949.28
2018-07-01T18:39:20.764Z,98951.47
2018-07-01T18:41:50.194Z,98953.23
2018-07-01T18:44:19.556Z,98951.36
2018-07-01T18:46:49.045Z,98945.03
2018-07-01T18:49:18.641Z,98949.28
2018-07-01T18:51:47.960Z,98945.15
2018-07-01T18:54:17.315Z,98946.33
2018-07-01T18:56:46.643Z,98947.48
2018-07-01T18:59:16.004Z,98946.88
2018-07-01T19:01:45.630Z,98941.40
2018-07-01T19:04:15.660Z,98955.09
2018-07-01T19:06:44.993Z,98956.33
2018-07-01T19:09:14.721Z,98955.93
2018-07-01T19:11:44.052Z,98957.27
2018-07-01T19:14:13.412Z,98959.02
2018-07-01T19:16:43.335Z,98955.42
2018-07-01T19:19:13.287Z,98957.31
2018-07-01T19:21:42.623Z,98955.20
2018-07-01T19:24:12.664Z,98956.30
2018-07-01T19:26:42.475Z,98958.87
2018-07-01T19:29:11.840Z,98957.04
2018-07-01T19:31:41.701Z,98964.42
2018-07-01T19:34:11.794Z,98964.79
2018-07-01T19:36:41.829Z,98963.09
2018-07-01T19:39:12.713Z,98967.24
2018-07-01T19:41:42.596Z,98968.73
2018-07-01T19:44:12.236Z,98973.77
2018-07-01T19:46:42.069Z,98965.76
2018-07-01T19:49:11.361Z,98980.99
2018-07-01T19:51:40.715Z,98983.59
2018-07-01T19:54:11.288Z,98980.45
2018-07-01T19:56:40.648Z,98986.41
2018-07-01T19:59:09.945Z,98987.17
2018-07-01T20:01:39.820Z,98985.27
2018-07-01T20:04:09.483Z,98982.28
2018-07-01T20:06:38.845Z,98997.41
2018-07-01T20:09:09.340Z,98987.19
2018-07-01T20:11:39.176Z,98988.73
2018-07-01T20:14:09.114Z,98989.80
2018-07-01T20:16:38.894Z,99000.59
2018-07-01T20:19:08.249Z,98996.91
2018-07-01T20:21:37.609Z,99002.89
2018-07-01T20:24:06.984Z,99002.09
2018-07-01T20:26:36.850Z,99004.27
2018-07-01T20:29:06.466Z,99002.41
2018-07-01T20:31:35.830Z,99005.41
2018-07-01T20:34:05.754Z,99007.88
2018-07-01T20:36:35.520Z,99009.55
2018-07-01T20:39:10.499Z,99005.17
2018-07-01T20:41:40.164Z,99008.71
2018-07-01T20:44:09.767Z,99005.36
2018-07-01T20:46:39.408Z,99008.03
2018-07-01T20:49:08.804Z,99003.48
2018-07-01T20:51:38.138Z,99008.00
2018-07-01T20:54:08.140Z,99008.34
2018-07-01T20:56:38.084Z,99007.31
2018-07-01T20:59:07.450Z,99009.50
2018-07-01T21:01:37.159Z,99015.34
2018-07-01T21:04:06.901Z,99012.05
2018-07-01T21:06:37.164Z,99015.88
2018-07-01T21:09:08.632Z,99010.63
2018-07-01T21:11:38.216Z,99013.44
2018-07-01T21:14:07.582Z,99003.73
2018-07-01T21:16:37.949Z,99006.89
2018-07-01T21:19:07.956Z,99013.46
2018-07-01T21:21:37.592Z,99012.72
2018-07-01T21:24:06.972Z,99009.22
2018-07-01T21:26:36.412Z,99008.63
2018-07-01T21:29:06.168Z,99006.17
2018-07-01T21:31:35.475Z,99008.16
2018-07-01T21:34:05.097Z,99015.65
2018-07-01T21:36:34.438Z,99008.83
2018-07-01T21:39:04.757Z,99017.73
2018-07-01T21:41:34.105Z,99006.80
2018-07-01T21:44:04.093Z,99010.77
2018-07-01T21:46:33.855Z,99017.48
2018-07-01T21:49:03.234Z,99016.96
2018-07-01T21:51:32.569Z,99019.77
2018-07-01T21:54:03.031Z,99020.47
2018-07-01T21:56:32.800Z,99021.90
2018-07-01T21:59:02.189Z,99020.40
2018-07-01T22:01:32.165Z,99031.27
2018-07-01T22:04:02.729Z,99028.93
2018-07-01T22:06:37.346Z,99035.03
2018-07-01T22:09:07.381Z,99037.94
2018-07-01T22:11:54.509Z,99030.55
2018-07-01T22:14:35.221Z,99030.23
2018-07-01T22:17:06.639Z,99027.86
2018-07-01T22:19:36.786Z,99031.70
2018-07-01T22:22:06.780Z,99027.02
2018-07-01T22:24:37.840Z,99029.86
2018-07-01T22:27:07.220Z,99022.62
2018-07-01T22:29:37.372Z,99028.05
2018-07-01T22:32:07.117Z,99029.72
2018-07-01T22:34:36.811Z,99029.20
2018-07-01T22:37:07.331Z,99026.84
2018-07-01T22:39:36.925Z,99032.28
2018-07-01T22:42:06.619Z,99034.05
2018-07-01T22:44:36.331Z,99032.41
2018-07-01T22:47:06.088Z,99037.92
2018-07-01T22:49:36.591Z,99038.27
2018-07-01T22:52:06.969Z,99031.03
2018-07-01T22:54:36.897Z,99036.17
2018-07-01T22:57:06.799Z,99040.27
2018-07-01T22:59:36.432Z,99043.02
2018-07-01T23:03:20.292Z,99038.36
2018-07-01T23:05:49.765Z,99041.95
2018-07-01T23:08:19.110Z,99047.81
2018-07-01T23:10:49.753Z,99045.12
2018-07-01T23:13:20.407Z,99045.09
2018-07-01T23:15:49.841Z,99046.51
2018-07-01T23:18:19.618Z,99049.27
2018-07-01T23:20:50.154Z,99049.30
2018-07-01T23:23:19.548Z,99043.59
2018-07-01T23:25:48.906Z,99032.53
2018-07-01T23:28:18.932Z,99039.19
2018-07-01T23:30:49.383Z,99040.37
2018-07-01T23:33:19.195Z,99043.02
2018-07-01T23:35:49.020Z,99043.75
2018-07-01T23:38:18.364Z,99041.37
2018-07-01T23:40:48.072Z,99040.38
2018-07-01T23:43:18.487Z,99040.58
2018-07-01T23:45:48.823Z,99042.33
2018-07-01T23:48:18.147Z,99035.40
2018-07-01T23:50:48.417Z,99039.20
2018-07-01T23:53:18.120Z,99040.58
2018-07-01T23:55:48.705Z,99041.49
2018-07-01T23:58:18.091Z,99036.02
